sensor_id;sensor_type;location;lat;lon;timestamp;P1;durP1;ratioP1;P2;durP2;ratioP2
65039;SDS011;51606;45.000;38.612;2023-07-13T00:00:08;1.83;;;1.48;;
65039;SDS011;51606;45.000;38.612;2023-07-13T00:02:40;1.30;;;1.10;;
65039;SDS011;51606;45.000;38.612;2023-07-13T00:05:07;3.15;;;1.15;;
65039;SDS011;51606;45.000;38.612;2023-07-13T00:07:34;2.10;;;1.50;;
65039;SDS011;51606;45.000;38.612;2023-07-13T00:10:02;1.45;;;1.20;;
65039;SDS011;51606;45.000;38.612;2023-07-13T00:12:31;1.10;;;1.00;;
65039;SDS011;51606;45.000;38.612;2023-07-13T00:15:00;5.28;;;1.85;;
65039;SDS011;51606;45.000;38.612;2023-07-13T00:17:31;2.08;;;1.15;;
65039;SDS011;51606;45.000;38.612;2023-07-13T00:19:57;1.38;;;0.88;;
65039;SDS011;51606;45.000;38.612;2023-07-13T00:22:24;3.05;;;0.90;;
65039;SDS011;51606;45.000;38.612;2023-07-13T00:24:52;0.63;;;0.63;;
65039;SDS011;51606;45.000;38.612;2023-07-13T00:41:31;2.08;;;0.85;;
65039;SDS011;51606;45.000;38.612;2023-07-13T00:43:58;1.67;;;0.85;;
65039;SDS011;51606;45.000;38.612;2023-07-13T00:46:28;0.63;;;0.50;;
65039;SDS011;51606;45.000;38.612;2023-07-13T00:48:59;5.05;;;1.00;;
65039;SDS011;51606;45.000;38.612;2023-07-13T00:51:39;1.58;;;0.95;;
65039;SDS011;51606;45.000;38.612;2023-07-13T00:54:18;0.88;;;0.70;;
65039;SDS011;51606;45.000;38.612;2023-07-13T00:56:49;0.98;;;0.80;;
65039;SDS011;51606;45.000;38.612;2023-07-13T00:59:19;1.08;;;0.95;;
65039;SDS011;51606;45.000;38.612;2023-07-13T01:01:48;1.95;;;1.17;;
65039;SDS011;51606;45.000;38.612;2023-07-13T01:04:16;1.67;;;0.90;;
65039;SDS011;51606;45.000;38.612;2023-07-13T01:06:44;1.10;;;1.00;;
65039;SDS011;51606;45.000;38.612;2023-07-13T01:09:14;0.80;;;0.80;;
65039;SDS011;51606;45.000;38.612;2023-07-13T01:11:42;1.00;;;0.90;;
65039;SDS011;51606;45.000;38.612;2023-07-13T01:14:10;2.15;;;1.88;;
65039;SDS011;51606;45.000;38.612;2023-07-13T01:16:37;0.93;;;0.75;;
65039;SDS011;51606;45.000;38.612;2023-07-13T01:19:12;1.35;;;1.05;;
65039;SDS011;51606;45.000;38.612;2023-07-13T01:21:52;0.73;;;0.60;;
65039;SDS011;51606;45.000;38.612;2023-07-13T01:24:18;1.48;;;1.15;;
65039;SDS011;51606;45.000;38.612;2023-07-13T01:26:46;0.70;;;0.70;;
65039;SDS011;51606;45.000;38.612;2023-07-13T01:29:12;3.38;;;0.93;;
65039;SDS011;51606;45.000;38.612;2023-07-13T01:31:39;3.28;;;1.30;;
65039;SDS011;51606;45.000;38.612;2023-07-13T01:34:06;0.93;;;0.90;;
65039;SDS011;51606;45.000;38.612;2023-07-13T01:36:32;1.25;;;1.00;;
65039;SDS011;51606;45.000;38.612;2023-07-13T01:38:59;1.02;;;0.90;;
65039;SDS011;51606;45.000;38.612;2023-07-13T01:41:25;2.83;;;1.27;;
65039;SDS011;51606;45.000;38.612;2023-07-13T01:43:53;1.77;;;1.40;;
65039;SDS011;51606;45.000;38.612;2023-07-13T01:46:19;1.40;;;1.30;;
65039;SDS011;51606;45.000;38.612;2023-07-13T01:48:46;1.50;;;1.30;;
65039;SDS011;51606;45.000;38.612;2023-07-13T01:51:12;3.15;;;1.95;;
65039;SDS011;51606;45.000;38.612;2023-07-13T01:53:42;4.63;;;1.15;;
65039;SDS011;51606;45.000;38.612;2023-07-13T01:56:08;1.98;;;1.10;;
65039;SDS011;51606;45.000;38.612;2023-07-13T01:58:35;1.52;;;1.27;;
65039;SDS011;51606;45.000;38.612;2023-07-13T02:01:01;1.52;;;1.10;;
65039;SDS011;51606;45.000;38.612;2023-07-13T02:03:28;1.67;;;1.13;;
65039;SDS011;51606;45.000;38.612;2023-07-13T02:05:57;4.25;;;1.70;;
65039;SDS011;51606;45.000;38.612;2023-07-13T02:08:24;2.35;;;1.30;;
65039;SDS011;51606;45.000;38.612;2023-07-13T02:10:51;1.70;;;1.17;;
65039;SDS011;51606;45.000;38.612;2023-07-13T02:13:17;0.93;;;0.82;;
65039;SDS011;51606;45.000;38.612;2023-07-13T02:15:44;1.77;;;1.55;;
65039;SDS011;51606;45.000;38.612;2023-07-13T02:18:10;1.60;;;1.30;;
65039;SDS011;51606;45.000;38.612;2023-07-13T02:20:40;0.95;;;0.85;;
65039;SDS011;51606;45.000;38.612;2023-07-13T02:23:06;5.05;;;1.40;;
65039;SDS011;51606;45.000;38.612;2023-07-13T02:25:33;1.65;;;1.05;;
65039;SDS011;51606;45.000;38.612;2023-07-13T02:27:59;4.30;;;1.50;;
65039;SDS011;51606;45.000;38.612;2023-07-13T02:30:27;2.65;;;1.85;;
65039;SDS011;51606;45.000;38.612;2023-07-13T02:32:55;1.45;;;1.10;;
65039;SDS011;51606;45.000;38.612;2023-07-13T02:35:23;3.17;;;1.48;;
65039;SDS011;51606;45.000;38.612;2023-07-13T02:37:49;2.08;;;1.15;;
65039;SDS011;51606;45.000;38.612;2023-07-13T02:40:16;1.25;;;1.10;;
65039;SDS011;51606;45.000;38.612;2023-07-13T02:42:43;0.88;;;0.88;;
65039;SDS011;51606;45.000;38.612;2023-07-13T02:45:09;2.83;;;0.80;;
65039;SDS011;51606;45.000;38.612;2023-07-13T02:47:39;4.20;;;1.10;;
65039;SDS011;51606;45.000;38.612;2023-07-13T02:50:07;1.40;;;0.80;;
65039;SDS011;51606;45.000;38.612;2023-07-13T02:52:34;0.93;;;0.65;;
65039;SDS011;51606;45.000;38.612;2023-07-13T02:55:01;3.83;;;1.40;;
65039;SDS011;51606;45.000;38.612;2023-07-13T02:57:28;1.30;;;0.90;;
65039;SDS011;51606;45.000;38.612;2023-07-13T02:59:56;1.10;;;1.00;;
65039;SDS011;51606;45.000;38.612;2023-07-13T03:02:24;2.20;;;1.20;;
65039;SDS011;51606;45.000;38.612;2023-07-13T03:04:51;0.93;;;0.88;;
65039;SDS011;51606;45.000;38.612;2023-07-13T03:07:17;1.90;;;1.35;;
65039;SDS011;51606;45.000;38.612;2023-07-13T03:09:47;1.90;;;1.02;;
65039;SDS011;51606;45.000;38.612;2023-07-13T03:12:14;1.00;;;0.85;;
65039;SDS011;51606;45.000;38.612;2023-07-13T03:14:41;17.73;;;1.40;;
65039;SDS011;51606;45.000;38.612;2023-07-13T03:17:08;1.05;;;0.95;;
65039;SDS011;51606;45.000;38.612;2023-07-13T03:19:40;3.40;;;1.58;;
65039;SDS011;51606;45.000;38.612;2023-07-13T03:22:07;1.00;;;0.90;;
65039;SDS011;51606;45.000;38.612;2023-07-13T03:24:34;1.08;;;0.98;;
65039;SDS011;51606;45.000;38.612;2023-07-13T03:27:05;1.35;;;1.00;;
65039;SDS011;51606;45.000;38.612;2023-07-13T03:29:34;3.22;;;1.10;;
65039;SDS011;51606;45.000;38.612;2023-07-13T03:32:01;1.05;;;0.95;;
65039;SDS011;51606;45.000;38.612;2023-07-13T03:34:31;2.10;;;1.20;;
65039;SDS011;51606;45.000;38.612;2023-07-13T03:36:59;0.98;;;0.82;;
65039;SDS011;51606;45.000;38.612;2023-07-13T03:39:25;3.15;;;1.10;;
65039;SDS011;51606;45.000;38.612;2023-07-13T03:41:54;1.85;;;1.30;;
65039;SDS011;51606;45.000;38.612;2023-07-13T03:44:22;1.38;;;1.20;;
65039;SDS011;51606;45.000;38.612;2023-07-13T03:46:53;2.22;;;1.20;;
65039;SDS011;51606;45.000;38.612;2023-07-13T03:49:19;2.35;;;1.55;;
65039;SDS011;51606;45.000;38.612;2023-07-13T03:51:47;1.92;;;1.30;;
65039;SDS011;51606;45.000;38.612;2023-07-13T03:54:13;1.83;;;1.50;;
65039;SDS011;51606;45.000;38.612;2023-07-13T03:56:40;2.10;;;1.60;;
65039;SDS011;51606;45.000;38.612;2023-07-13T03:59:08;1.63;;;1.25;;
65039;SDS011;51606;45.000;38.612;2023-07-13T04:01:35;1.67;;;1.48;;
65039;SDS011;51606;45.000;38.612;2023-07-13T04:04:01;2.33;;;1.50;;
65039;SDS011;51606;45.000;38.612;2023-07-13T04:06:29;2.63;;;1.63;;
65039;SDS011;51606;45.000;38.612;2023-07-13T04:08:57;3.22;;;1.75;;
65039;SDS011;51606;45.000;38.612;2023-07-13T04:11:28;4.47;;;1.70;;
65039;SDS011;51606;45.000;38.612;2023-07-13T04:13:59;2.80;;;1.77;;
65039;SDS011;51606;45.000;38.612;2023-07-13T04:16:25;2.70;;;1.80;;
65039;SDS011;51606;45.000;38.612;2023-07-13T04:18:52;1.85;;;1.65;;
65039;SDS011;51606;45.000;38.612;2023-07-13T04:21:20;1.63;;;1.20;;
65039;SDS011;51606;45.000;38.612;2023-07-13T04:23:47;2.15;;;1.33;;
65039;SDS011;51606;45.000;38.612;2023-07-13T04:26:14;2.50;;;1.27;;
65039;SDS011;51606;45.000;38.612;2023-07-13T04:28:41;1.88;;;1.40;;
65039;SDS011;51606;45.000;38.612;2023-07-13T04:31:07;2.22;;;1.48;;
65039;SDS011;51606;45.000;38.612;2023-07-13T04:33:34;2.22;;;1.58;;
65039;SDS011;51606;45.000;38.612;2023-07-13T04:36:00;3.13;;;1.20;;
65039;SDS011;51606;45.000;38.612;2023-07-13T04:38:28;4.70;;;1.58;;
65039;SDS011;51606;45.000;38.612;2023-07-13T04:40:57;1.50;;;1.40;;
65039;SDS011;51606;45.000;38.612;2023-07-13T04:43:29;12.68;;;2.08;;
65039;SDS011;51606;45.000;38.612;2023-07-13T04:45:56;1.98;;;1.13;;
65039;SDS011;51606;45.000;38.612;2023-07-13T04:48:23;5.60;;;3.05;;
65039;SDS011;51606;45.000;38.612;2023-07-13T04:50:57;2.65;;;2.13;;
65039;SDS011;51606;45.000;38.612;2023-07-13T04:53:25;1.85;;;1.65;;
65039;SDS011;51606;45.000;38.612;2023-07-13T04:55:52;3.25;;;1.70;;
65039;SDS011;51606;45.000;38.612;2023-07-13T04:58:19;5.28;;;1.45;;
65039;SDS011;51606;45.000;38.612;2023-07-13T05:00:47;2.88;;;1.70;;
65039;SDS011;51606;45.000;38.612;2023-07-13T05:03:13;5.25;;;2.22;;
65039;SDS011;51606;45.000;38.612;2023-07-13T05:05:40;2.03;;;1.30;;
65039;SDS011;51606;45.000;38.612;2023-07-13T05:08:07;3.65;;;2.20;;
65039;SDS011;51606;45.000;38.612;2023-07-13T05:10:34;5.03;;;3.05;;
65039;SDS011;51606;45.000;38.612;2023-07-13T05:13:01;2.92;;;2.15;;
65039;SDS011;51606;45.000;38.612;2023-07-13T05:15:28;3.13;;;2.35;;
65039;SDS011;51606;45.000;38.612;2023-07-13T05:17:55;3.67;;;1.38;;
65039;SDS011;51606;45.000;38.612;2023-07-13T05:20:21;1.90;;;1.60;;
65039;SDS011;51606;45.000;38.612;2023-07-13T05:22:48;2.08;;;1.55;;
65039;SDS011;51606;45.000;38.612;2023-07-13T05:25:16;2.55;;;1.45;;
65039;SDS011;51606;45.000;38.612;2023-07-13T05:27:43;2.03;;;1.60;;
65039;SDS011;51606;45.000;38.612;2023-07-13T05:30:11;3.53;;;1.30;;
65039;SDS011;51606;45.000;38.612;2023-07-13T05:32:38;4.57;;;2.10;;
65039;SDS011;51606;45.000;38.612;2023-07-13T05:35:04;3.45;;;1.70;;
65039;SDS011;51606;45.000;38.612;2023-07-13T05:37:32;4.68;;;1.60;;
65039;SDS011;51606;45.000;38.612;2023-07-13T05:39:58;4.38;;;1.75;;
65039;SDS011;51606;45.000;38.612;2023-07-13T05:42:25;1.77;;;1.33;;
65039;SDS011;51606;45.000;38.612;2023-07-13T05:44:51;2.45;;;1.52;;
65039;SDS011;51606;45.000;38.612;2023-07-13T05:47:18;2.05;;;1.35;;
65039;SDS011;51606;45.000;38.612;2023-07-13T05:49:44;5.78;;;1.50;;
65039;SDS011;51606;45.000;38.612;2023-07-13T05:52:11;2.28;;;1.30;;
65039;SDS011;51606;45.000;38.612;2023-07-13T05:54:37;2.67;;;1.42;;
65039;SDS011;51606;45.000;38.612;2023-07-13T05:57:04;1.63;;;1.13;;
65039;SDS011;51606;45.000;38.612;2023-07-13T05:59:31;3.55;;;2.15;;
65039;SDS011;51606;45.000;38.612;2023-07-13T06:01:58;1.77;;;1.38;;
65039;SDS011;51606;45.000;38.612;2023-07-13T06:04:24;2.03;;;1.42;;
65039;SDS011;51606;45.000;38.612;2023-07-13T06:06:51;1.52;;;1.38;;
65039;SDS011;51606;45.000;38.612;2023-07-13T06:09:18;1.60;;;1.33;;
65039;SDS011;51606;45.000;38.612;2023-07-13T06:11:45;2.10;;;1.45;;
65039;SDS011;51606;45.000;38.612;2023-07-13T06:14:11;2.53;;;1.50;;
65039;SDS011;51606;45.000;38.612;2023-07-13T06:16:39;1.55;;;1.17;;
65039;SDS011;51606;45.000;38.612;2023-07-13T06:19:07;4.28;;;1.80;;
65039;SDS011;51606;45.000;38.612;2023-07-13T06:21:33;3.15;;;1.27;;
65039;SDS011;51606;45.000;38.612;2023-07-13T06:24:00;1.45;;;1.35;;
65039;SDS011;51606;45.000;38.612;2023-07-13T06:26:26;1.75;;;1.60;;
65039;SDS011;51606;45.000;38.612;2023-07-13T06:28:53;2.03;;;1.40;;
65039;SDS011;51606;45.000;38.612;2023-07-13T06:31:20;1.48;;;1.38;;
65039;SDS011;51606;45.000;38.612;2023-07-13T06:33:47;1.60;;;1.23;;
65039;SDS011;51606;45.000;38.612;2023-07-13T06:36:14;2.10;;;1.50;;
65039;SDS011;51606;45.000;38.612;2023-07-13T06:38:40;3.70;;;1.20;;
65039;SDS011;51606;45.000;38.612;2023-07-13T06:41:07;1.15;;;1.05;;
65039;SDS011;51606;45.000;38.612;2023-07-13T06:43:34;1.77;;;1.38;;
65039;SDS011;51606;45.000;38.612;2023-07-13T06:46:00;1.65;;;1.33;;
65039;SDS011;51606;45.000;38.612;2023-07-13T06:48:27;1.85;;;1.50;;
65039;SDS011;51606;45.000;38.612;2023-07-13T06:50:54;1.90;;;1.33;;
65039;SDS011;51606;45.000;38.612;2023-07-13T06:53:21;2.28;;;1.50;;
65039;SDS011;51606;45.000;38.612;2023-07-13T06:55:49;2.05;;;1.40;;
65039;SDS011;51606;45.000;38.612;2023-07-13T06:58:16;3.13;;;1.42;;
65039;SDS011;51606;45.000;38.612;2023-07-13T07:00:44;4.07;;;1.55;;
65039;SDS011;51606;45.000;38.612;2023-07-13T07:03:11;2.22;;;1.30;;
65039;SDS011;51606;45.000;38.612;2023-07-13T07:05:37;2.58;;;1.33;;
65039;SDS011;51606;45.000;38.612;2023-07-13T07:08:04;3.47;;;1.77;;
65039;SDS011;51606;45.000;38.612;2023-07-13T07:10:30;1.48;;;1.38;;
65039;SDS011;51606;45.000;38.612;2023-07-13T07:12:57;2.33;;;1.70;;
65039;SDS011;51606;45.000;38.612;2023-07-13T07:15:24;2.15;;;1.73;;
65039;SDS011;51606;45.000;38.612;2023-07-13T07:17:52;1.88;;;1.45;;
65039;SDS011;51606;45.000;38.612;2023-07-13T07:20:19;5.20;;;1.75;;
65039;SDS011;51606;45.000;38.612;2023-07-13T07:22:46;1.30;;;1.20;;
65039;SDS011;51606;45.000;38.612;2023-07-13T07:25:13;1.50;;;1.40;;
65039;SDS011;51606;45.000;38.612;2023-07-13T07:27:40;2.03;;;1.38;;
65039;SDS011;51606;45.000;38.612;2023-07-13T07:30:06;4.82;;;1.90;;
65039;SDS011;51606;45.000;38.612;2023-07-13T07:32:33;3.45;;;1.42;;
65039;SDS011;51606;45.000;38.612;2023-07-13T07:35:00;1.80;;;1.60;;
65039;SDS011;51606;45.000;38.612;2023-07-13T07:37:26;1.33;;;1.23;;
65039;SDS011;51606;45.000;38.612;2023-07-13T07:39:53;6.85;;;2.42;;
65039;SDS011;51606;45.000;38.612;2023-07-13T07:42:20;1.38;;;1.27;;
65039;SDS011;51606;45.000;38.612;2023-07-13T07:44:46;2.00;;;1.50;;
65039;SDS011;51606;45.000;38.612;2023-07-13T07:47:13;2.42;;;1.27;;
65039;SDS011;51606;45.000;38.612;2023-07-13T07:49:41;1.70;;;1.40;;
65039;SDS011;51606;45.000;38.612;2023-07-13T08:03:09;3.35;;;1.83;;
65039;SDS011;51606;45.000;38.612;2023-07-13T08:05:36;5.88;;;3.95;;
65039;SDS011;51606;45.000;38.612;2023-07-13T08:08:03;1.90;;;1.52;;
65039;SDS011;51606;45.000;38.612;2023-07-13T08:10:30;2.15;;;1.67;;
65039;SDS011;51606;45.000;38.612;2023-07-13T08:12:56;7.10;;;2.20;;
65039;SDS011;51606;45.000;38.612;2023-07-13T08:15:23;3.85;;;1.70;;
65039;SDS011;51606;45.000;38.612;2023-07-13T08:17:49;5.55;;;2.95;;
65039;SDS011;51606;45.000;38.612;2023-07-13T08:20:16;2.25;;;1.40;;
65039;SDS011;51606;45.000;38.612;2023-07-13T08:22:43;2.28;;;1.40;;
65039;SDS011;51606;45.000;38.612;2023-07-13T08:25:10;5.65;;;1.33;;
65039;SDS011;51606;45.000;38.612;2023-07-13T08:27:36;1.52;;;1.38;;
65039;SDS011;51606;45.000;38.612;2023-07-13T08:30:03;4.63;;;1.40;;
65039;SDS011;51606;45.000;38.612;2023-07-13T08:32:31;2.92;;;1.40;;
65039;SDS011;51606;45.000;38.612;2023-07-13T08:34:57;1.42;;;1.20;;
65039;SDS011;51606;45.000;38.612;2023-07-13T08:37:24;1.75;;;1.08;;
65039;SDS011;51606;45.000;38.612;2023-07-13T08:39:50;2.58;;;1.40;;
65039;SDS011;51606;45.000;38.612;2023-07-13T08:45:26;11.02;;;6.30;;
65039;SDS011;51606;45.000;38.612;2023-07-13T08:48:10;1.20;;;1.10;;
65039;SDS011;51606;45.000;38.612;2023-07-13T08:50:51;2.55;;;1.40;;
65039;SDS011;51606;45.000;38.612;2023-07-13T08:53:47;1.77;;;1.25;;
65039;SDS011;51606;45.000;38.612;2023-07-13T08:56:18;1.63;;;1.42;;
65039;SDS011;51606;45.000;38.612;2023-07-13T08:58:48;2.70;;;1.50;;
65039;SDS011;51606;45.000;38.612;2023-07-13T09:04:32;4.40;;;1.75;;
65039;SDS011;51606;45.000;38.612;2023-07-13T09:09:36;2.22;;;1.30;;
65039;SDS011;51606;45.000;38.612;2023-07-13T09:15:02;4.95;;;1.48;;
65039;SDS011;51606;45.000;38.612;2023-07-13T09:17:40;6.68;;;1.88;;
65039;SDS011;51606;45.000;38.612;2023-07-13T09:23:05;3.88;;;1.60;;
65039;SDS011;51606;45.000;38.612;2023-07-13T09:25:37;1.70;;;1.27;;
65039;SDS011;51606;45.000;38.612;2023-07-13T09:33:44;6.03;;;1.30;;
65039;SDS011;51606;45.000;38.612;2023-07-13T09:36:21;5.43;;;1.25;;
65039;SDS011;51606;45.000;38.612;2023-07-13T09:42:07;1.48;;;1.27;;
65039;SDS011;51606;45.000;38.612;2023-07-13T09:44:53;2.05;;;1.38;;
65039;SDS011;51606;45.000;38.612;2023-07-13T09:47:22;1.77;;;1.35;;
65039;SDS011;51606;45.000;38.612;2023-07-13T09:49:56;1.90;;;1.30;;
65039;SDS011;51606;45.000;38.612;2023-07-13T09:52:25;1.45;;;1.10;;
65039;SDS011;51606;45.000;38.612;2023-07-13T09:54:53;2.40;;;1.30;;
65039;SDS011;51606;45.000;38.612;2023-07-13T09:57:27;1.77;;;1.20;;
65039;SDS011;51606;45.000;38.612;2023-07-13T09:59:54;3.90;;;1.30;;
65039;SDS011;51606;45.000;38.612;2023-07-13T10:02:32;2.25;;;1.40;;
65039;SDS011;51606;45.000;38.612;2023-07-13T10:05:02;3.13;;;1.33;;
65039;SDS011;51606;45.000;38.612;2023-07-13T10:07:40;2.50;;;1.55;;
65039;SDS011;51606;45.000;38.612;2023-07-13T10:12:41;1.83;;;1.20;;
65039;SDS011;51606;45.000;38.612;2023-07-13T10:15:22;4.03;;;1.55;;
65039;SDS011;51606;45.000;38.612;2023-07-13T10:17:52;1.90;;;1.30;;
65039;SDS011;51606;45.000;38.612;2023-07-13T10:20:20;2.38;;;1.75;;
65039;SDS011;51606;45.000;38.612;2023-07-13T10:25:32;2.05;;;1.42;;
65039;SDS011;51606;45.000;38.612;2023-07-13T10:28:09;1.92;;;1.23;;
65039;SDS011;51606;45.000;38.612;2023-07-13T10:30:53;2.55;;;1.38;;
65039;SDS011;51606;45.000;38.612;2023-07-13T10:33:22;1.83;;;1.60;;
65039;SDS011;51606;45.000;38.612;2023-07-13T10:35:49;2.75;;;1.25;;
65039;SDS011;51606;45.000;38.612;2023-07-13T10:38:20;3.33;;;1.40;;
65039;SDS011;51606;45.000;38.612;2023-07-13T10:43:51;4.78;;;1.50;;
65039;SDS011;51606;45.000;38.612;2023-07-13T10:46:19;1.20;;;1.08;;
65039;SDS011;51606;45.000;38.612;2023-07-13T10:48:51;2.75;;;1.55;;
65039;SDS011;51606;45.000;38.612;2023-07-13T10:51:21;1.52;;;1.30;;
65039;SDS011;51606;45.000;38.612;2023-07-13T10:54:10;1.75;;;1.30;;
65039;SDS011;51606;45.000;38.612;2023-07-13T10:56:45;1.23;;;1.13;;
65039;SDS011;51606;45.000;38.612;2023-07-13T10:59:13;10.10;;;1.50;;
65039;SDS011;51606;45.000;38.612;2023-07-13T11:01:52;2.17;;;1.42;;
65039;SDS011;51606;45.000;38.612;2023-07-13T11:04:25;3.22;;;1.35;;
65039;SDS011;51606;45.000;38.612;2023-07-13T11:06:58;1.70;;;1.25;;
65039;SDS011;51606;45.000;38.612;2023-07-13T11:09:40;3.10;;;1.70;;
65039;SDS011;51606;45.000;38.612;2023-07-13T11:12:27;2.72;;;1.45;;
65039;SDS011;51606;45.000;38.612;2023-07-13T11:15:13;3.00;;;1.30;;
65039;SDS011;51606;45.000;38.612;2023-07-13T11:17:50;1.98;;;1.13;;
65039;SDS011;51606;45.000;38.612;2023-07-13T11:20:33;3.47;;;1.48;;
65039;SDS011;51606;45.000;38.612;2023-07-13T11:25:35;3.05;;;1.33;;
65039;SDS011;51606;45.000;38.612;2023-07-13T11:42:13;1.30;;;1.00;;
65039;SDS011;51606;45.000;38.612;2023-07-13T11:44:42;3.08;;;1.65;;
65039;SDS011;51606;45.000;38.612;2023-07-13T11:47:14;1.95;;;1.23;;
65039;SDS011;51606;45.000;38.612;2023-07-13T11:49:49;3.53;;;1.60;;
65039;SDS011;51606;45.000;38.612;2023-07-13T11:52:26;1.55;;;1.20;;
65039;SDS011;51606;45.000;38.612;2023-07-13T11:55:00;1.30;;;1.20;;
65039;SDS011;51606;45.000;38.612;2023-07-13T11:57:39;2.28;;;1.40;;
65039;SDS011;51606;45.000;38.612;2023-07-13T12:00:45;1.65;;;1.20;;
65039;SDS011;51606;45.000;38.612;2023-07-13T12:03:20;1.92;;;1.55;;
65039;SDS011;51606;45.000;38.612;2023-07-13T12:06:00;3.28;;;1.35;;
65039;SDS011;51606;45.000;38.612;2023-07-13T12:08:27;2.08;;;1.20;;
65039;SDS011;51606;45.000;38.612;2023-07-13T12:10:58;1.52;;;1.25;;
65039;SDS011;51606;45.000;38.612;2023-07-13T12:13:35;1.40;;;1.30;;
65039;SDS011;51606;45.000;38.612;2023-07-13T12:16:08;1.85;;;1.20;;
65039;SDS011;51606;45.000;38.612;2023-07-13T12:18:40;1.75;;;1.20;;
65039;SDS011;51606;45.000;38.612;2023-07-13T12:21:12;1.27;;;1.10;;
65039;SDS011;51606;45.000;38.612;2023-07-13T12:23:43;4.25;;;1.60;;
65039;SDS011;51606;45.000;38.612;2023-07-13T12:26:12;1.98;;;1.50;;
65039;SDS011;51606;45.000;38.612;2023-07-13T12:28:48;1.75;;;1.20;;
65039;SDS011;51606;45.000;38.612;2023-07-13T12:34:07;1.15;;;1.02;;
65039;SDS011;51606;45.000;38.612;2023-07-13T12:36:38;1.30;;;1.20;;
65039;SDS011;51606;45.000;38.612;2023-07-13T15:11:28;2.47;;;1.20;;
65039;SDS011;51606;45.000;38.612;2023-07-13T15:13:55;1.23;;;1.10;;
65039;SDS011;51606;45.000;38.612;2023-07-13T15:16:22;2.67;;;1.38;;
65039;SDS011;51606;45.000;38.612;2023-07-13T15:18:50;1.90;;;1.33;;
65039;SDS011;51606;45.000;38.612;2023-07-13T15:21:21;2.15;;;1.60;;
65039;SDS011;51606;45.000;38.612;2023-07-13T15:23:50;5.75;;;1.75;;
65039;SDS011;51606;45.000;38.612;2023-07-13T15:26:18;6.93;;;1.42;;
65039;SDS011;51606;45.000;38.612;2023-07-13T15:28:45;1.85;;;1.25;;
65039;SDS011;51606;45.000;38.612;2023-07-13T15:31:23;2.88;;;1.40;;
65039;SDS011;51606;45.000;38.612;2023-07-13T15:33:51;1.65;;;1.55;;
65039;SDS011;51606;45.000;38.612;2023-07-13T15:36:20;2.90;;;1.40;;
65039;SDS011;51606;45.000;38.612;2023-07-13T15:38:48;1.75;;;1.40;;
65039;SDS011;51606;45.000;38.612;2023-07-13T15:43:48;4.95;;;2.33;;
65039;SDS011;51606;45.000;38.612;2023-07-13T15:46:20;3.72;;;2.28;;
65039;SDS011;51606;45.000;38.612;2023-07-13T15:48:49;1.42;;;1.30;;
65039;SDS011;51606;45.000;38.612;2023-07-13T15:51:29;1.67;;;1.35;;
65039;SDS011;51606;45.000;38.612;2023-07-13T15:54:00;2.50;;;1.45;;
65039;SDS011;51606;45.000;38.612;2023-07-13T15:56:29;2.50;;;1.45;;
65039;SDS011;51606;45.000;38.612;2023-07-13T15:59:01;3.25;;;1.42;;
65039;SDS011;51606;45.000;38.612;2023-07-13T16:01:28;1.30;;;1.20;;
65039;SDS011;51606;45.000;38.612;2023-07-13T16:03:57;1.73;;;1.20;;
65039;SDS011;51606;45.000;38.612;2023-07-13T16:06:28;2.03;;;1.35;;
65039;SDS011;51606;45.000;38.612;2023-07-13T16:08:58;2.80;;;1.50;;
65039;SDS011;51606;45.000;38.612;2023-07-13T16:11:28;4.72;;;1.27;;
65039;SDS011;51606;45.000;38.612;2023-07-13T16:14:00;3.03;;;1.73;;
65039;SDS011;51606;45.000;38.612;2023-07-13T16:16:28;2.17;;;1.40;;
65039;SDS011;51606;45.000;38.612;2023-07-13T16:18:58;1.77;;;1.33;;
65039;SDS011;51606;45.000;38.612;2023-07-13T16:21:27;2.85;;;1.70;;
65039;SDS011;51606;45.000;38.612;2023-07-13T16:23:55;1.77;;;1.60;;
65039;SDS011;51606;45.000;38.612;2023-07-13T16:29:15;3.05;;;1.70;;
65039;SDS011;51606;45.000;38.612;2023-07-13T16:31:57;2.08;;;1.35;;
65039;SDS011;51606;45.000;38.612;2023-07-13T16:34:25;3.30;;;2.45;;
65039;SDS011;51606;45.000;38.612;2023-07-13T16:36:52;6.68;;;2.97;;
65039;SDS011;51606;45.000;38.612;2023-07-13T16:39:19;3.95;;;2.58;;
65039;SDS011;51606;45.000;38.612;2023-07-13T16:41:51;6.22;;;2.90;;
65039;SDS011;51606;45.000;38.612;2023-07-13T16:44:20;5.05;;;3.00;;
65039;SDS011;51606;45.000;38.612;2023-07-13T16:46:48;4.05;;;2.72;;
65039;SDS011;51606;45.000;38.612;2023-07-13T16:49:21;2.85;;;2.22;;
65039;SDS011;51606;45.000;38.612;2023-07-13T16:51:50;2.73;;;2.27;;
65039;SDS011;51606;45.000;38.612;2023-07-13T16:54:18;10.80;;;2.30;;
65039;SDS011;51606;45.000;38.612;2023-07-13T16:56:46;2.63;;;1.92;;
65039;SDS011;51606;45.000;38.612;2023-07-13T16:59:17;2.63;;;2.10;;
65039;SDS011;51606;45.000;38.612;2023-07-13T17:01:45;4.03;;;2.45;;
65039;SDS011;51606;45.000;38.612;2023-07-13T17:04:12;3.38;;;2.30;;
65039;SDS011;51606;45.000;38.612;2023-07-13T17:06:44;2.67;;;2.05;;
65039;SDS011;51606;45.000;38.612;2023-07-13T17:09:12;3.00;;;1.80;;
65039;SDS011;51606;45.000;38.612;2023-07-13T17:11:40;2.67;;;1.77;;
65039;SDS011;51606;45.000;38.612;2023-07-13T17:14:14;2.55;;;1.67;;
65039;SDS011;51606;45.000;38.612;2023-07-13T17:16:46;5.28;;;1.85;;
65039;SDS011;51606;45.000;38.612;2023-07-13T17:19:17;6.32;;;2.38;;
65039;SDS011;51606;45.000;38.612;2023-07-13T17:21:46;3.70;;;2.25;;
65039;SDS011;51606;45.000;38.612;2023-07-13T17:24:16;3.80;;;2.53;;
65039;SDS011;51606;45.000;38.612;2023-07-13T17:26:47;3.40;;;2.17;;
65039;SDS011;51606;45.000;38.612;2023-07-13T17:29:19;5.07;;;2.65;;
65039;SDS011;51606;45.000;38.612;2023-07-13T17:31:46;13.55;;;4.18;;
65039;SDS011;51606;45.000;38.612;2023-07-13T17:34:14;5.32;;;2.20;;
65039;SDS011;51606;45.000;38.612;2023-07-13T17:36:46;5.90;;;2.55;;
65039;SDS011;51606;45.000;38.612;2023-07-13T17:39:14;4.60;;;2.38;;
65039;SDS011;51606;45.000;38.612;2023-07-13T17:41:42;19.17;;;4.80;;
65039;SDS011;51606;45.000;38.612;2023-07-13T17:44:10;9.35;;;5.40;;
65039;SDS011;51606;45.000;38.612;2023-07-13T17:46:38;10.93;;;5.15;;
65039;SDS011;51606;45.000;38.612;2023-07-13T17:49:12;11.60;;;5.68;;
65039;SDS011;51606;45.000;38.612;2023-07-13T17:51:48;11.32;;;6.03;;
65039;SDS011;51606;45.000;38.612;2023-07-13T17:54:16;12.73;;;6.05;;
65039;SDS011;51606;45.000;38.612;2023-07-13T17:56:45;7.95;;;4.25;;
65039;SDS011;51606;45.000;38.612;2023-07-13T17:59:11;4.97;;;3.60;;
65039;SDS011;51606;45.000;38.612;2023-07-13T18:01:38;4.13;;;3.33;;
65039;SDS011;51606;45.000;38.612;2023-07-13T18:04:07;4.38;;;2.90;;
65039;SDS011;51606;45.000;38.612;2023-07-13T18:06:37;4.03;;;2.90;;
65039;SDS011;51606;45.000;38.612;2023-07-13T18:09:17;6.10;;;3.20;;
65039;SDS011;51606;45.000;38.612;2023-07-13T18:11:46;4.07;;;3.10;;
65039;SDS011;51606;45.000;38.612;2023-07-13T18:14:13;4.18;;;2.85;;
65039;SDS011;51606;45.000;38.612;2023-07-13T18:16:41;24.27;;;3.28;;
65039;SDS011;51606;45.000;38.612;2023-07-13T18:21:57;4.68;;;3.05;;
65039;SDS011;51606;45.000;38.612;2023-07-13T18:24:23;10.70;;;4.68;;
65039;SDS011;51606;45.000;38.612;2023-07-13T18:26:51;10.85;;;4.10;;
65039;SDS011;51606;45.000;38.612;2023-07-13T18:29:17;9.10;;;4.03;;
65039;SDS011;51606;45.000;38.612;2023-07-13T18:31:44;10.57;;;3.97;;
65039;SDS011;51606;45.000;38.612;2023-07-13T18:34:11;5.28;;;3.28;;
65039;SDS011;51606;45.000;38.612;2023-07-13T18:36:39;8.48;;;3.80;;
65039;SDS011;51606;45.000;38.612;2023-07-13T18:39:10;6.60;;;3.58;;
65039;SDS011;51606;45.000;38.612;2023-07-13T18:41:39;7.07;;;3.83;;